sensor_id;sensor_type;location;lat;lon;timestamp;P1;durP1;ratioP1;P2;durP2;ratioP2
45065;SDS011;30830;53.704;10.004;2022-10-16T00:00:43;5.97;;;5.07;;
45065;SDS011;30830;53.704;10.004;2022-10-16T00:03:09;8.43;;;5.70;;
45065;SDS011;30830;53.704;10.004;2022-10-16T00:05:38;7.57;;;5.43;;
45065;SDS011;30830;53.704;10.004;2022-10-16T00:08:06;9.60;;;6.20;;
45065;SDS011;30830;53.704;10.004;2022-10-16T00:10:32;10.20;;;5.28;;
45065;SDS011;30830;53.704;10.004;2022-10-16T00:12:58;7.30;;;6.25;;
45065;SDS011;30830;53.704;10.004;2022-10-16T00:15:23;7.75;;;5.95;;
45065;SDS011;30830;53.704;10.004;2022-10-16T00:17:49;6.68;;;5.35;;
45065;SDS011;30830;53.704;10.004;2022-10-16T00:20:15;8.93;;;6.07;;
45065;SDS011;30830;53.704;10.004;2022-10-16T00:22:40;5.88;;;5.22;;
45065;SDS011;30830;53.704;10.004;2022-10-16T00:25:06;6.35;;;5.25;;
45065;SDS011;30830;53.704;10.004;2022-10-16T00:27:32;8.10;;;5.68;;
45065;SDS011;30830;53.704;10.004;2022-10-16T00:29:58;10.65;;;6.10;;
45065;SDS011;30830;53.704;10.004;2022-10-16T00:32:24;6.97;;;5.88;;
45065;SDS011;30830;53.704;10.004;2022-10-16T00:34:49;7.93;;;5.43;;
45065;SDS011;30830;53.704;10.004;2022-10-16T00:37:15;11.50;;;6.03;;
45065;SDS011;30830;53.704;10.004;2022-10-16T00:39:40;6.85;;;4.55;;
45065;SDS011;30830;53.704;10.004;2022-10-16T00:42:06;6.22;;;4.53;;
45065;SDS011;30830;53.704;10.004;2022-10-16T00:49:50;8.43;;;4.07;;
45065;SDS011;30830;53.704;10.004;2022-10-16T00:52:18;5.22;;;3.90;;
45065;SDS011;30830;53.704;10.004;2022-10-16T00:54:44;7.35;;;3.72;;
45065;SDS011;30830;53.704;10.004;2022-10-16T00:57:11;4.78;;;3.65;;
45065;SDS011;30830;53.704;10.004;2022-10-16T00:59:37;7.22;;;3.67;;
45065;SDS011;30830;53.704;10.004;2022-10-16T01:02:05;3.67;;;2.92;;
45065;SDS011;30830;53.704;10.004;2022-10-16T01:04:34;5.07;;;3.08;;
45065;SDS011;30830;53.704;10.004;2022-10-16T01:07:10;6.45;;;3.03;;
45065;SDS011;30830;53.704;10.004;2022-10-16T01:12:45;5.05;;;2.50;;
45065;SDS011;30830;53.704;10.004;2022-10-16T01:18:09;3.47;;;2.33;;
45065;SDS011;30830;53.704;10.004;2022-10-16T01:20:44;12.13;;;3.45;;
45065;SDS011;30830;53.704;10.004;2022-10-16T01:23:56;5.72;;;2.60;;
45065;SDS011;30830;53.704;10.004;2022-10-16T01:37:34;3.63;;;2.05;;
45065;SDS011;30830;53.704;10.004;2022-10-16T01:40:05;3.85;;;2.45;;
45065;SDS011;30830;53.704;10.004;2022-10-16T01:42:44;6.30;;;2.38;;
45065;SDS011;30830;53.704;10.004;2022-10-16T01:45:15;4.57;;;2.28;;
45065;SDS011;30830;53.704;10.004;2022-10-16T01:47:43;4.95;;;2.20;;
45065;SDS011;30830;53.704;10.004;2022-10-16T01:50:10;2.75;;;2.15;;
45065;SDS011;30830;53.704;10.004;2022-10-16T01:52:39;4.25;;;2.28;;
45065;SDS011;30830;53.704;10.004;2022-10-16T01:55:07;4.47;;;2.22;;
45065;SDS011;30830;53.704;10.004;2022-10-16T01:57:36;4.18;;;2.65;;
45065;SDS011;30830;53.704;10.004;2022-10-16T02:00:07;2.20;;;1.90;;
45065;SDS011;30830;53.704;10.004;2022-10-16T02:02:37;4.55;;;1.95;;
45065;SDS011;30830;53.704;10.004;2022-10-16T02:07:42;4.97;;;1.88;;
45065;SDS011;30830;53.704;10.004;2022-10-16T02:10:08;3.45;;;2.38;;
45065;SDS011;30830;53.704;10.004;2022-10-16T02:12:36;4.20;;;2.13;;
45065;SDS011;30830;53.704;10.004;2022-10-16T02:15:05;4.78;;;2.17;;
45065;SDS011;30830;53.704;10.004;2022-10-16T02:17:31;3.70;;;2.13;;
45065;SDS011;30830;53.704;10.004;2022-10-16T02:19:57;3.72;;;2.20;;
45065;SDS011;30830;53.704;10.004;2022-10-16T02:22:28;6.13;;;1.70;;
45065;SDS011;30830;53.704;10.004;2022-10-16T02:25:08;4.43;;;1.85;;
45065;SDS011;30830;53.704;10.004;2022-10-16T02:30:22;5.88;;;2.30;;
45065;SDS011;30830;53.704;10.004;2022-10-16T02:32:54;2.90;;;1.42;;
45065;SDS011;30830;53.704;10.004;2022-10-16T02:35:21;4.00;;;1.75;;
45065;SDS011;30830;53.704;10.004;2022-10-16T02:37:49;4.32;;;1.90;;
45065;SDS011;30830;53.704;10.004;2022-10-16T02:40:15;3.15;;;1.77;;
45065;SDS011;30830;53.704;10.004;2022-10-16T02:42:43;5.50;;;1.90;;
45065;SDS011;30830;53.704;10.004;2022-10-16T02:45:09;4.35;;;2.17;;
45065;SDS011;30830;53.704;10.004;2022-10-16T02:47:36;3.00;;;1.50;;
45065;SDS011;30830;53.704;10.004;2022-10-16T02:50:02;1.75;;;1.30;;
45065;SDS011;30830;53.704;10.004;2022-10-16T02:52:29;6.72;;;2.22;;
45065;SDS011;30830;53.704;10.004;2022-10-16T02:54:54;3.00;;;1.30;;
45065;SDS011;30830;53.704;10.004;2022-10-16T02:57:20;4.13;;;1.70;;
45065;SDS011;30830;53.704;10.004;2022-10-16T02:59:45;3.88;;;1.50;;
45065;SDS011;30830;53.704;10.004;2022-10-16T03:02:11;2.92;;;1.75;;
45065;SDS011;30830;53.704;10.004;2022-10-16T03:04:37;2.97;;;1.50;;
45065;SDS011;30830;53.704;10.004;2022-10-16T03:07:03;3.13;;;1.88;;
45065;SDS011;30830;53.704;10.004;2022-10-16T03:09:29;3.10;;;1.60;;
45065;SDS011;30830;53.704;10.004;2022-10-16T03:11:54;3.22;;;1.25;;
45065;SDS011;30830;53.704;10.004;2022-10-16T03:14:20;3.95;;;1.60;;
45065;SDS011;30830;53.704;10.004;2022-10-16T03:16:45;1.88;;;1.30;;
45065;SDS011;30830;53.704;10.004;2022-10-16T03:19:11;7.28;;;2.10;;
45065;SDS011;30830;53.704;10.004;2022-10-16T03:21:36;3.92;;;1.45;;
45065;SDS011;30830;53.704;10.004;2022-10-16T03:24:02;5.30;;;1.52;;
45065;SDS011;30830;53.704;10.004;2022-10-16T03:26:27;6.18;;;1.30;;
45065;SDS011;30830;53.704;10.004;2022-10-16T03:28:53;2.03;;;0.95;;
45065;SDS011;30830;53.704;10.004;2022-10-16T03:31:18;2.72;;;1.33;;
45065;SDS011;30830;53.704;10.004;2022-10-16T03:33:44;7.60;;;2.15;;
45065;SDS011;30830;53.704;10.004;2022-10-16T03:36:10;3.08;;;1.20;;
45065;SDS011;30830;53.704;10.004;2022-10-16T03:38:35;3.05;;;1.23;;
45065;SDS011;30830;53.704;10.004;2022-10-16T03:41:01;2.88;;;1.60;;
45065;SDS011;30830;53.704;10.004;2022-10-16T03:43:26;7.75;;;1.77;;
45065;SDS011;30830;53.704;10.004;2022-10-16T03:45:52;2.08;;;1.13;;
45065;SDS011;30830;53.704;10.004;2022-10-16T03:48:18;3.88;;;1.85;;
45065;SDS011;30830;53.704;10.004;2022-10-16T03:50:44;3.22;;;1.50;;
45065;SDS011;30830;53.704;10.004;2022-10-16T03:53:09;4.13;;;1.77;;
45065;SDS011;30830;53.704;10.004;2022-10-16T03:55:35;1.83;;;1.50;;
45065;SDS011;30830;53.704;10.004;2022-10-16T03:58:01;2.30;;;1.42;;
45065;SDS011;30830;53.704;10.004;2022-10-16T04:00:27;4.28;;;1.58;;
45065;SDS011;30830;53.704;10.004;2022-10-16T04:02:53;2.80;;;1.35;;
45065;SDS011;30830;53.704;10.004;2022-10-16T04:05:19;3.20;;;1.60;;
45065;SDS011;30830;53.704;10.004;2022-10-16T04:07:44;2.45;;;1.45;;
45065;SDS011;30830;53.704;10.004;2022-10-16T04:10:10;3.35;;;1.88;;
45065;SDS011;30830;53.704;10.004;2022-10-16T04:12:36;2.70;;;1.92;;
45065;SDS011;30830;53.704;10.004;2022-10-16T04:15:02;2.90;;;1.00;;
45065;SDS011;30830;53.704;10.004;2022-10-16T04:17:27;8.32;;;1.40;;
45065;SDS011;30830;53.704;10.004;2022-10-16T04:19:53;1.52;;;1.17;;
45065;SDS011;30830;53.704;10.004;2022-10-16T04:22:18;4.53;;;1.73;;
45065;SDS011;30830;53.704;10.004;2022-10-16T04:24:44;2.47;;;1.17;;
45065;SDS011;30830;53.704;10.004;2022-10-16T04:27:09;3.40;;;1.55;;
45065;SDS011;30830;53.704;10.004;2022-10-16T04:29:35;2.70;;;1.40;;
45065;SDS011;30830;53.704;10.004;2022-10-16T04:32:00;1.60;;;1.10;;
45065;SDS011;30830;53.704;10.004;2022-10-16T04:34:26;2.95;;;1.85;;
45065;SDS011;30830;53.704;10.004;2022-10-16T04:36:52;5.13;;;1.33;;
45065;SDS011;30830;53.704;10.004;2022-10-16T04:39:17;2.30;;;1.25;;
45065;SDS011;30830;53.704;10.004;2022-10-16T04:41:43;3.08;;;2.53;;
45065;SDS011;30830;53.704;10.004;2022-10-16T04:44:08;5.10;;;1.83;;
45065;SDS011;30830;53.704;10.004;2022-10-16T04:46:34;5.18;;;1.70;;
45065;SDS011;30830;53.704;10.004;2022-10-16T04:49:00;7.07;;;1.58;;
45065;SDS011;30830;53.704;10.004;2022-10-16T04:51:25;5.80;;;1.17;;
45065;SDS011;30830;53.704;10.004;2022-10-16T04:53:52;3.28;;;1.30;;
45065;SDS011;30830;53.704;10.004;2022-10-16T04:56:19;3.20;;;1.10;;
45065;SDS011;30830;53.704;10.004;2022-10-16T04:58:45;3.28;;;1.65;;
45065;SDS011;30830;53.704;10.004;2022-10-16T05:01:11;1.42;;;1.33;;
45065;SDS011;30830;53.704;10.004;2022-10-16T05:03:36;2.47;;;1.30;;
45065;SDS011;30830;53.704;10.004;2022-10-16T05:06:04;5.15;;;1.40;;
45065;SDS011;30830;53.704;10.004;2022-10-16T05:08:31;3.47;;;1.80;;
45065;SDS011;30830;53.704;10.004;2022-10-16T05:10:56;7.43;;;1.65;;
45065;SDS011;30830;53.704;10.004;2022-10-16T05:13:22;8.00;;;2.38;;
45065;SDS011;30830;53.704;10.004;2022-10-16T05:15:48;12.05;;;2.00;;
45065;SDS011;30830;53.704;10.004;2022-10-16T05:18:14;4.30;;;1.42;;
45065;SDS011;30830;53.704;10.004;2022-10-16T05:20:40;4.32;;;1.77;;
45065;SDS011;30830;53.704;10.004;2022-10-16T05:23:06;2.80;;;1.80;;
45065;SDS011;30830;53.704;10.004;2022-10-16T05:25:32;3.67;;;2.00;;
45065;SDS011;30830;53.704;10.004;2022-10-16T05:27:58;7.07;;;1.90;;
45065;SDS011;30830;53.704;10.004;2022-10-16T05:30:23;6.93;;;2.15;;
45065;SDS011;30830;53.704;10.004;2022-10-16T05:32:49;4.50;;;2.25;;
45065;SDS011;30830;53.704;10.004;2022-10-16T05:35:16;2.90;;;1.85;;
45065;SDS011;30830;53.704;10.004;2022-10-16T05:37:42;5.70;;;2.60;;
45065;SDS011;30830;53.704;10.004;2022-10-16T05:40:08;3.38;;;2.60;;
45065;SDS011;30830;53.704;10.004;2022-10-16T05:42:34;7.20;;;3.28;;
45065;SDS011;30830;53.704;10.004;2022-10-16T05:45:00;4.20;;;2.15;;
45065;SDS011;30830;53.704;10.004;2022-10-16T05:47:25;5.38;;;3.15;;
45065;SDS011;30830;53.704;10.004;2022-10-16T05:49:51;4.18;;;2.42;;
45065;SDS011;30830;53.704;10.004;2022-10-16T05:52:17;6.00;;;2.92;;
45065;SDS011;30830;53.704;10.004;2022-10-16T05:54:42;4.30;;;2.83;;
45065;SDS011;30830;53.704;10.004;2022-10-16T05:57:08;4.53;;;3.33;;
45065;SDS011;30830;53.704;10.004;2022-10-16T05:59:34;6.18;;;2.53;;
45065;SDS011;30830;53.704;10.004;2022-10-16T06:01:59;3.88;;;2.70;;
45065;SDS011;30830;53.704;10.004;2022-10-16T06:04:25;6.10;;;3.55;;
45065;SDS011;30830;53.704;10.004;2022-10-16T06:06:50;4.22;;;2.70;;
45065;SDS011;30830;53.704;10.004;2022-10-16T06:09:16;4.45;;;2.60;;
45065;SDS011;30830;53.704;10.004;2022-10-16T06:11:42;7.30;;;2.75;;
45065;SDS011;30830;53.704;10.004;2022-10-16T06:14:08;4.13;;;2.13;;
45065;SDS011;30830;53.704;10.004;2022-10-16T06:16:34;3.22;;;2.47;;
45065;SDS011;30830;53.704;10.004;2022-10-16T06:19:01;4.85;;;2.45;;
45065;SDS011;30830;53.704;10.004;2022-10-16T06:21:29;8.68;;;2.58;;
45065;SDS011;30830;53.704;10.004;2022-10-16T06:23:55;4.88;;;2.30;;
45065;SDS011;30830;53.704;10.004;2022-10-16T06:26:22;7.43;;;2.00;;
45065;SDS011;30830;53.704;10.004;2022-10-16T06:28:50;9.93;;;2.28;;
45065;SDS011;30830;53.704;10.004;2022-10-16T06:31:16;4.05;;;2.10;;
45065;SDS011;30830;53.704;10.004;2022-10-16T06:33:42;5.63;;;2.50;;
45065;SDS011;30830;53.704;10.004;2022-10-16T06:36:12;4.30;;;2.17;;
45065;SDS011;30830;53.704;10.004;2022-10-16T06:38:39;3.17;;;2.28;;
45065;SDS011;30830;53.704;10.004;2022-10-16T06:41:05;4.47;;;2.22;;
45065;SDS011;30830;53.704;10.004;2022-10-16T06:43:32;2.45;;;2.10;;
45065;SDS011;30830;53.704;10.004;2022-10-16T06:46:00;5.47;;;2.55;;
45065;SDS011;30830;53.704;10.004;2022-10-16T06:48:27;4.40;;;2.40;;
45065;SDS011;30830;53.704;10.004;2022-10-16T06:51:03;5.30;;;2.97;;
45065;SDS011;30830;53.704;10.004;2022-10-16T06:53:38;5.32;;;2.33;;
45065;SDS011;30830;53.704;10.004;2022-10-16T06:58:36;4.50;;;2.15;;
45065;SDS011;30830;53.704;10.004;2022-10-16T07:01:03;6.28;;;2.38;;
45065;SDS011;30830;53.704;10.004;2022-10-16T07:03:29;3.72;;;2.03;;
45065;SDS011;30830;53.704;10.004;2022-10-16T07:05:55;4.50;;;3.00;;
45065;SDS011;30830;53.704;10.004;2022-10-16T07:08:21;4.95;;;2.20;;
45065;SDS011;30830;53.704;10.004;2022-10-16T07:10:46;4.22;;;2.50;;
45065;SDS011;30830;53.704;10.004;2022-10-16T07:13:12;4.70;;;2.70;;
45065;SDS011;30830;53.704;10.004;2022-10-16T07:15:39;6.38;;;3.03;;
45065;SDS011;30830;53.704;10.004;2022-10-16T07:18:05;4.70;;;2.72;;
45065;SDS011;30830;53.704;10.004;2022-10-16T07:20:30;7.03;;;2.45;;
45065;SDS011;30830;53.704;10.004;2022-10-16T07:22:56;3.47;;;2.70;;
45065;SDS011;30830;53.704;10.004;2022-10-16T07:25:21;4.10;;;2.50;;
45065;SDS011;30830;53.704;10.004;2022-10-16T07:27:47;2.95;;;2.47;;
45065;SDS011;30830;53.704;10.004;2022-10-16T07:30:12;9.55;;;3.17;;
45065;SDS011;30830;53.704;10.004;2022-10-16T07:32:38;3.58;;;2.83;;
45065;SDS011;30830;53.704;10.004;2022-10-16T07:35:04;5.75;;;3.10;;
45065;SDS011;30830;53.704;10.004;2022-10-16T07:37:30;4.47;;;2.50;;
45065;SDS011;30830;53.704;10.004;2022-10-16T07:39:55;4.30;;;2.20;;
45065;SDS011;30830;53.704;10.004;2022-10-16T07:42:21;4.32;;;2.78;;
45065;SDS011;30830;53.704;10.004;2022-10-16T07:44:46;5.35;;;3.03;;
45065;SDS011;30830;53.704;10.004;2022-10-16T07:47:12;7.88;;;3.30;;
45065;SDS011;30830;53.704;10.004;2022-10-16T07:49:37;4.78;;;3.58;;
45065;SDS011;30830;53.704;10.004;2022-10-16T07:52:03;4.47;;;2.45;;
45065;SDS011;30830;53.704;10.004;2022-10-16T07:54:29;6.35;;;2.65;;
45065;SDS011;30830;53.704;10.004;2022-10-16T07:56:54;3.28;;;2.53;;
45065;SDS011;30830;53.704;10.004;2022-10-16T07:59:20;3.40;;;2.85;;
45065;SDS011;30830;53.704;10.004;2022-10-16T08:01:45;5.82;;;2.67;;
45065;SDS011;30830;53.704;10.004;2022-10-16T08:04:11;5.05;;;3.03;;
45065;SDS011;30830;53.704;10.004;2022-10-16T08:06:37;4.50;;;3.08;;
45065;SDS011;30830;53.704;10.004;2022-10-16T08:09:05;7.80;;;3.03;;
45065;SDS011;30830;53.704;10.004;2022-10-16T08:11:31;4.10;;;2.80;;
45065;SDS011;30830;53.704;10.004;2022-10-16T08:13:57;5.00;;;2.97;;
45065;SDS011;30830;53.704;10.004;2022-10-16T08:16:23;4.55;;;2.38;;
45065;SDS011;30830;53.704;10.004;2022-10-16T08:18:49;4.03;;;3.17;;
45065;SDS011;30830;53.704;10.004;2022-10-16T08:21:16;2.63;;;2.20;;
45065;SDS011;30830;53.704;10.004;2022-10-16T08:23:43;4.20;;;2.85;;
45065;SDS011;30830;53.704;10.004;2022-10-16T08:26:09;3.95;;;3.13;;
45065;SDS011;30830;53.704;10.004;2022-10-16T08:28:36;3.83;;;3.17;;
45065;SDS011;30830;53.704;10.004;2022-10-16T08:31:09;4.75;;;3.20;;
45065;SDS011;30830;53.704;10.004;2022-10-16T08:33:40;9.15;;;3.22;;
45065;SDS011;30830;53.704;10.004;2022-10-16T08:36:09;4.00;;;2.70;;
45065;SDS011;30830;53.704;10.004;2022-10-16T08:38:36;3.25;;;2.70;;
45065;SDS011;30830;53.704;10.004;2022-10-16T08:49:05;4.63;;;2.60;;
45065;SDS011;30830;53.704;10.004;2022-10-16T08:51:37;5.68;;;2.78;;
45065;SDS011;30830;53.704;10.004;2022-10-16T08:54:03;2.70;;;2.40;;
45065;SDS011;30830;53.704;10.004;2022-10-16T08:56:31;3.05;;;2.53;;
45065;SDS011;30830;53.704;10.004;2022-10-16T08:58:58;3.70;;;2.78;;
45065;SDS011;30830;53.704;10.004;2022-10-16T09:01:25;4.93;;;2.60;;
45065;SDS011;30830;53.704;10.004;2022-10-16T09:21:31;4.45;;;1.85;;
45065;SDS011;30830;53.704;10.004;2022-10-16T09:24:07;4.35;;;1.90;;
45065;SDS011;30830;53.704;10.004;2022-10-16T09:26:45;5.28;;;2.33;;
45065;SDS011;30830;53.704;10.004;2022-10-16T09:29:15;4.53;;;2.05;;
45065;SDS011;30830;53.704;10.004;2022-10-16T09:31:49;5.03;;;1.80;;
45065;SDS011;30830;53.704;10.004;2022-10-16T09:36:51;2.97;;;1.92;;
45065;SDS011;30830;53.704;10.004;2022-10-16T09:39:17;2.88;;;1.90;;
45065;SDS011;30830;53.704;10.004;2022-10-16T09:41:44;3.00;;;1.75;;
45065;SDS011;30830;53.704;10.004;2022-10-16T09:44:29;4.22;;;1.40;;
45065;SDS011;30830;53.704;10.004;2022-10-16T09:47:03;2.90;;;1.85;;
45065;SDS011;30830;53.704;10.004;2022-10-16T09:49:49;1.75;;;1.60;;
45065;SDS011;30830;53.704;10.004;2022-10-16T09:52:24;3.90;;;1.60;;
45065;SDS011;30830;53.704;10.004;2022-10-16T09:55:12;3.33;;;1.45;;
45065;SDS011;30830;53.704;10.004;2022-10-16T09:57:52;6.30;;;1.75;;
45065;SDS011;30830;53.704;10.004;2022-10-16T10:00:19;7.15;;;2.53;;
45065;SDS011;30830;53.704;10.004;2022-10-16T10:02:46;7.28;;;1.80;;
45065;SDS011;30830;53.704;10.004;2022-10-16T10:05:18;4.03;;;1.42;;
45065;SDS011;30830;53.704;10.004;2022-10-16T10:07:55;4.88;;;1.55;;
45065;SDS011;30830;53.704;10.004;2022-10-16T10:10:26;7.82;;;1.40;;
45065;SDS011;30830;53.704;10.004;2022-10-16T10:12:53;4.32;;;1.70;;
45065;SDS011;30830;53.704;10.004;2022-10-16T10:15:20;4.15;;;2.15;;
45065;SDS011;30830;53.704;10.004;2022-10-16T10:17:52;4.55;;;1.10;;
45065;SDS011;30830;53.704;10.004;2022-10-16T10:20:34;5.43;;;2.00;;
45065;SDS011;30830;53.704;10.004;2022-10-16T10:23:24;4.93;;;1.35;;
45065;SDS011;30830;53.704;10.004;2022-10-16T10:36:31;3.45;;;1.30;;
45065;SDS011;30830;53.704;10.004;2022-10-16T10:39:05;3.33;;;1.25;;
45065;SDS011;30830;53.704;10.004;2022-10-16T10:41:56;3.17;;;1.13;;
45065;SDS011;30830;53.704;10.004;2022-10-16T10:47:19;4.97;;;1.08;;
45065;SDS011;30830;53.704;10.004;2022-10-16T10:53:10;4.95;;;1.30;;
45065;SDS011;30830;53.704;10.004;2022-10-16T10:59:53;3.60;;;1.15;;
45065;SDS011;30830;53.704;10.004;2022-10-16T11:07:32;4.60;;;1.98;;
45065;SDS011;30830;53.704;10.004;2022-10-16T11:10:11;4.97;;;1.73;;
45065;SDS011;30830;53.704;10.004;2022-10-16T11:12:42;5.95;;;1.38;;
45065;SDS011;30830;53.704;10.004;2022-10-16T11:17:44;2.33;;;0.80;;
45065;SDS011;30830;53.704;10.004;2022-10-16T11:20:37;3.80;;;1.20;;
45065;SDS011;30830;53.704;10.004;2022-10-16T11:25:44;2.70;;;1.00;;
45065;SDS011;30830;53.704;10.004;2022-10-16T11:30:54;4.68;;;1.00;;
45065;SDS011;30830;53.704;10.004;2022-10-16T11:33:30;7.25;;;1.48;;
45065;SDS011;30830;53.704;10.004;2022-10-16T11:38:55;8.45;;;2.20;;
45065;SDS011;30830;53.704;10.004;2022-10-16T11:41:49;3.08;;;1.33;;
45065;SDS011;30830;53.704;10.004;2022-10-16T11:44:21;7.10;;;1.20;;
45065;SDS011;30830;53.704;10.004;2022-10-16T11:47:12;2.67;;;0.75;;
45065;SDS011;30830;53.704;10.004;2022-10-16T11:57:33;3.10;;;0.77;;
45065;SDS011;30830;53.704;10.004;2022-10-16T12:00:17;5.82;;;1.05;;
45065;SDS011;30830;53.704;10.004;2022-10-16T12:02:57;3.97;;;1.20;;
45065;SDS011;30830;53.704;10.004;2022-10-16T12:05:27;6.53;;;1.10;;
45065;SDS011;30830;53.704;10.004;2022-10-16T12:10:35;4.13;;;1.27;;
45065;SDS011;30830;53.704;10.004;2022-10-16T12:13:01;3.38;;;0.90;;
45065;SDS011;30830;53.704;10.004;2022-10-16T12:15:30;2.75;;;0.63;;
45065;SDS011;30830;53.704;10.004;2022-10-16T12:17:57;10.35;;;1.15;;
45065;SDS011;30830;53.704;10.004;2022-10-16T12:20:33;7.00;;;0.70;;
45065;SDS011;30830;53.704;10.004;2022-10-16T12:23:02;5.43;;;0.93;;
45065;SDS011;30830;53.704;10.004;2022-10-16T12:25:35;5.50;;;1.75;;
45065;SDS011;30830;53.704;10.004;2022-10-16T12:28:25;1.52;;;0.95;;
45065;SDS011;30830;53.704;10.004;2022-10-16T12:33:30;5.60;;;1.13;;
45065;SDS011;30830;53.704;10.004;2022-10-16T12:35:57;1.77;;;1.13;;
45065;SDS011;30830;53.704;10.004;2022-10-16T12:38:25;3.25;;;0.90;;
45065;SDS011;30830;53.704;10.004;2022-10-16T12:41:11;4.25;;;0.70;;
45065;SDS011;30830;53.704;10.004;2022-10-16T12:43:46;3.72;;;0.90;;
45065;SDS011;30830;53.704;10.004;2022-10-16T12:48:38;2.25;;;0.70;;
45065;SDS011;30830;53.704;10.004;2022-10-16T12:51:19;4.20;;;1.48;;
45065;SDS011;30830;53.704;10.004;2022-10-16T12:54:13;0.60;;;0.52;;
45065;SDS011;30830;53.704;10.004;2022-10-16T13:05:03;3.08;;;1.00;;
45065;SDS011;30830;53.704;10.004;2022-10-16T13:12:58;5.00;;;1.08;;
45065;SDS011;30830;53.704;10.004;2022-10-16T13:18:19;3.58;;;1.00;;
45065;SDS011;30830;53.704;10.004;2022-10-16T13:23:36;4.18;;;0.73;;
45065;SDS011;30830;53.704;10.004;2022-10-16T13:28:46;5.05;;;0.95;;
45065;SDS011;30830;53.704;10.004;2022-10-16T13:31:14;2.05;;;0.93;;
45065;SDS011;30830;53.704;10.004;2022-10-16T13:33:45;3.47;;;0.77;;
45065;SDS011;30830;53.704;10.004;2022-10-16T13:36:20;3.00;;;0.93;;
45065;SDS011;30830;53.704;10.004;2022-10-16T13:38:48;2.20;;;0.73;;
45065;SDS011;30830;53.704;10.004;2022-10-16T13:41:36;3.38;;;0.95;;
45065;SDS011;30830;53.704;10.004;2022-10-16T13:44:02;2.95;;;0.88;;
45065;SDS011;30830;53.704;10.004;2022-10-16T13:46:27;3.28;;;1.05;;
45065;SDS011;30830;53.704;10.004;2022-10-16T13:51:24;4.38;;;1.08;;
45065;SDS011;30830;53.704;10.004;2022-10-16T13:53:50;2.47;;;0.98;;
45065;SDS011;30830;53.704;10.004;2022-10-16T13:56:17;5.25;;;0.95;;
45065;SDS011;30830;53.704;10.004;2022-10-16T13:58:44;1.85;;;0.80;;
45065;SDS011;30830;53.704;10.004;2022-10-16T14:01:17;5.65;;;1.23;;
45065;SDS011;30830;53.704;10.004;2022-10-16T14:03:47;1.27;;;0.90;;
45065;SDS011;30830;53.704;10.004;2022-10-16T14:06:15;2.85;;;0.75;;
45065;SDS011;30830;53.704;10.004;2022-10-16T14:08:44;4.10;;;1.27;;
45065;SDS011;30830;53.704;10.004;2022-10-16T14:11:19;8.35;;;1.42;;
45065;SDS011;30830;53.704;10.004;2022-10-16T14:13:48;4.10;;;1.40;;
45065;SDS011;30830;53.704;10.004;2022-10-16T14:16:22;2.75;;;1.20;;
45065;SDS011;30830;53.704;10.004;2022-10-16T14:19:01;1.48;;;0.80;;
45065;SDS011;30830;53.704;10.004;2022-10-16T14:21:30;4.20;;;0.80;;
45065;SDS011;30830;53.704;10.004;2022-10-16T14:23:57;4.00;;;0.90;;
45065;SDS011;30830;53.704;10.004;2022-10-16T14:26:23;4.53;;;1.38;;
45065;SDS011;30830;53.704;10.004;2022-10-16T14:31:54;4.55;;;1.20;;
45065;SDS011;30830;53.704;10.004;2022-10-16T14:37:01;3.53;;;1.05;;
45065;SDS011;30830;53.704;10.004;2022-10-16T14:39:42;3.95;;;1.27;;
45065;SDS011;30830;53.704;10.004;2022-10-16T14:42:16;6.90;;;1.10;;
45065;SDS011;30830;53.704;10.004;2022-10-16T14:44:44;3.20;;;1.23;;
45065;SDS011;30830;53.704;10.004;2022-10-16T14:47:13;2.42;;;0.98;;
45065;SDS011;30830;53.704;10.004;2022-10-16T14:49:41;3.42;;;0.98;;
45065;SDS011;30830;53.704;10.004;2022-10-16T14:52:11;4.70;;;1.08;;
45065;SDS011;30830;53.704;10.004;2022-10-16T14:54:37;1.85;;;1.00;;
45065;SDS011;30830;53.704;10.004;2022-10-16T14:57:03;10.48;;;1.25;;
45065;SDS011;30830;53.704;10.004;2022-10-16T14:59:36;2.22;;;1.25;;
45065;SDS011;30830;53.704;10.004;2022-10-16T15:02:20;3.75;;;1.02;;
45065;SDS011;30830;53.704;10.004;2022-10-16T15:04:55;2.80;;;0.95;;
45065;SDS011;30830;53.704;10.004;2022-10-16T15:07:22;6.93;;;1.10;;
45065;SDS011;30830;53.704;10.004;2022-10-16T15:09:48;3.47;;;0.88;;
45065;SDS011;30830;53.704;10.004;2022-10-16T15:12:14;3.67;;;0.90;;
45065;SDS011;30830;53.704;10.004;2022-10-16T15:14:40;6.05;;;1.17;;
45065;SDS011;30830;53.704;10.004;2022-10-16T15:17:11;3.55;;;1.00;;
45065;SDS011;30830;53.704;10.004;2022-10-16T15:19:37;4.72;;;1.23;;
45065;SDS011;30830;53.704;10.004;2022-10-16T15:22:03;4.20;;;1.02;;
45065;SDS011;30830;53.704;10.004;2022-10-16T15:24:29;3.25;;;1.20;;
45065;SDS011;30830;53.704;10.004;2022-10-16T15:26:54;1.52;;;1.00;;
45065;SDS011;30830;53.704;10.004;2022-10-16T15:29:20;2.83;;;1.00;;
45065;SDS011;30830;53.704;10.004;2022-10-16T15:31:45;4.60;;;1.25;;
45065;SDS011;30830;53.704;10.004;2022-10-16T15:34:12;3.88;;;1.40;;
45065;SDS011;30830;53.704;10.004;2022-10-16T15:36:40;6.25;;;2.95;;
45065;SDS011;30830;53.704;10.004;2022-10-16T15:39:10;20.90;;;9.98;;
45065;SDS011;30830;53.704;10.004;2022-10-16T15:41:38;79.20;;;33.28;;
45065;SDS011;30830;53.704;10.004;2022-10-16T15:44:04;25.40;;;11.80;;
45065;SDS011;30830;53.704;10.004;2022-10-16T15:46:30;20.05;;;9.98;;
45065;SDS011;30830;53.704;10.004;2022-10-16T15:48:57;13.30;;;6.38;;
45065;SDS011;30830;53.704;10.004;2022-10-16T15:51:23;11.43;;;3.78;;
45065;SDS011;30830;53.704;10.004;2022-10-16T15:53:49;7.45;;;1.98;;
45065;SDS011;30830;53.704;10.004;2022-10-16T15:56:16;4.78;;;2.13;;
45065;SDS011;30830;53.704;10.004;2022-10-16T15:58:42;5.85;;;1.73;;
45065;SDS011;30830;53.704;10.004;2022-10-16T16:01:08;4.45;;;1.83;;
45065;SDS011;30830;53.704;10.004;2022-10-16T16:03:35;4.90;;;2.58;;
45065;SDS011;30830;53.704;10.004;2022-10-16T16:06:05;10.43;;;4.32;;
45065;SDS011;30830;53.704;10.004;2022-10-16T16:08:35;9.80;;;7.07;;
45065;SDS011;30830;53.704;10.004;2022-10-16T16:11:04;7.68;;;5.88;;
45065;SDS011;30830;53.704;10.004;2022-10-16T16:13:32;8.15;;;5.32;;
45065;SDS011;30830;53.704;10.004;2022-10-16T16:15:57;6.65;;;5.70;;
45065;SDS011;30830;53.704;10.004;2022-10-16T16:18:23;13.05;;;11.43;;
45065;SDS011;30830;53.704;10.004;2022-10-16T16:20:49;18.08;;;14.60;;
45065;SDS011;30830;53.704;10.004;2022-10-16T16:23:15;19.33;;;13.88;;
45065;SDS011;30830;53.704;10.004;2022-10-16T16:25:41;13.70;;;10.80;;
45065;SDS011;30830;53.704;10.004;2022-10-16T16:28:07;18.85;;;9.27;;
45065;SDS011;30830;53.704;10.004;2022-10-16T16:30:35;11.10;;;8.13;;
45065;SDS011;30830;53.704;10.004;2022-10-16T16:33:01;14.57;;;7.97;;
45065;SDS011;30830;53.704;10.004;2022-10-16T16:35:26;13.07;;;8.13;;
45065;SDS011;30830;53.704;10.004;2022-10-16T16:37:52;16.98;;;8.98;;
45065;SDS011;30830;53.704;10.004;2022-10-16T16:40:17;13.15;;;8.68;;
45065;SDS011;30830;53.704;10.004;2022-10-16T16:42:43;13.02;;;7.65;;
45065;SDS011;30830;53.704;10.004;2022-10-16T16:45:09;13.77;;;7.32;;
45065;SDS011;30830;53.704;10.004;2022-10-16T16:47:34;12.23;;;5.85;;
45065;SDS011;30830;53.704;10.004;2022-10-16T16:50:00;12.98;;;5.88;;
45065;SDS011;30830;53.704;10.004;2022-10-16T16:52:29;10.88;;;4.40;;
45065;SDS011;30830;53.704;10.004;2022-10-16T16:54:55;8.52;;;4.00;;
45065;SDS011;30830;53.704;10.004;2022-10-16T16:57:20;8.60;;;4.63;;
45065;SDS011;30830;53.704;10.004;2022-10-16T16:59:46;8.77;;;5.00;;
45065;SDS011;30830;53.704;10.004;2022-10-16T17:02:14;7.05;;;3.80;;